x

9442396 - La Push, Wa (lapw1) Weather Station

3:30 - Sat 23rd Jul 2016 All times are PDT. -7 hours from GMT.

  • Wind
    11mph, 13mph gusts
  • Sea Temp 56°f
  • Aire Temp 60°f
  • Sea Pressure 1026.2mb
  • 9442396 - La Push, Wa
  • 9442396 - La Push, Wa

More Historic Weather Station data

Upgrade to MSW Pro to gain access to the past 30 days of data for over 8000 Wavebouys and Weather Stations around the globe.

Join Pro

Comparision Forecast

View Surf forecast
   
sáb 07/23 3:30 11 13 mph 1026.2mb 56f 60f
3:24 11 14 mph 1026.2mb 56f 60f
3:18 10 13 mph 1026.3mb 56f 60f
3:12 9 11 mph 1026.3mb 56f 60f
3:06 9 13 mph 1026.3mb 56f 60f
3:00 10 11 mph 1026.4mb 56f 60f
2:36 11 14 mph 1026.3mb 56f 60f
2:30 10 13 mph 1026.3mb 56f 60f
2:24 10 13 mph 1026.3mb 56f 60f
2:18 10 13 mph 1026.3mb 56f 60f
2:12 11 14 mph 1026.3mb 56f 60f
2:06 11 13 mph 1026.3mb 56f 60f
2:00 10 13 mph 1026.3mb 56f 60f
1:36 9 11 mph 1026.3mb 56f 60f
1:30 10 13 mph 1026.3mb 56f 60f
1:24 10 13 mph 1026.3mb 56f 60f
1:18 10 11 mph 1026.3mb 56f 60f
1:12 9 10 mph 1026.3mb 56f 60f
1:06 9 10 mph 1026.3mb 56f 60f
1:00 9 11 mph 1026.3mb 56f 60f
12:36 8 10 mph 1026.3mb 56f 60f
12:30 8 9 mph 1026.2mb 56f 60f
12:24 8 9 mph 1026.2mb 56f 60f
12:18 7 9 mph 1026.3mb 56f 60f
12:12 6 8 mph 1026.2mb 56f 60f
12:06 7 8 mph 1026.3mb 57f 60f
12:00 7 8 mph 1026.3mb 57f 60f
11:36 6 8 mph 1026.1mb 57f 60f
11:30 7 8 mph 1026.1mb 57f 60f
11:24 6 7 mph 1026.2mb 58f 60f
11:18 6 7 mph 1026.2mb 58f 60f
11:12 6 7 mph 1026.2mb 58f 60f
11:06 5 7 mph 1026.2mb 59f 60f
11:00 6 7 mph 1026.3mb 60f 60f
10:36 7 8 mph 1026.3mb 61f 59f
10:30 6 7 mph 1026.2mb 62f 59f
10:24 7 8 mph 1026.2mb 61f 59f
10:18 6 8 mph 1026.2mb 61f 59f
10:12 7 8 mph 1026.2mb 61f 59f
10:06 7 8 mph 1026.2mb 61f 59f
10:00 6 7 mph 1026.1mb 61f 59f
9:36 6 8 mph 1026mb 62f 59f
9:30 6 7 mph 1026mb 62f 59f
9:24 6 7 mph 1026mb 62f 59f
9:18 6 7 mph 1026mb 62f 59f
9:12 6 8 mph 1026mb 62f 58f
9:06 8 10 mph 1026mb 62f 58f
9:00 9 10 mph 1026mb 62f 58f
8:36 9 11 mph 1025.9mb 63f 58f
8:30 9 10 mph 1025.8mb 62f 58f
8:24 5 7 mph 1025.8mb 62f 59f
8:18  -  2 mph 1025.7mb 62f 59f
8:12  -  2 mph 1025.7mb 62f 59f
8:06 1 3 mph 1025.7mb 62f 58f
8:00 2 3 mph 1025.7mb 61f 59f
7:36 1 2 mph 1025.6mb 61f 58f
7:30 2 3 mph 1025.6mb 60f 57f
7:24 2 3 mph 1025.6mb 60f 57f
7:18 2
mph
1025.5mb 58f 57f
7:12 2 3 mph 1025.5mb 58f 58f
7:06 2 3 mph 1025.5mb 57f 57f
7:00  -  3 mph 1025.4mb 57f 57f
6:36 2 3 mph 1025.3mb 57f 58f
6:30 2 5 mph 1025.3mb 57f 58f
6:24 3 5 mph 1025.3mb 57f 58f
6:18 3
mph
1025.4mb 57f 58f
6:12 2
mph
1025.4mb 57f 58f
6:06 2
mph
1025.4mb 57f 58f
6:00  -  1 mph 1025.5mb 57f 58f
5:36 3 6 mph 1025.4mb 57f 59f
5:30 5 7 mph 1025.4mb 57f 59f
5:24 6 9 mph 1025.4mb 57f 59f
5:18 8 9 mph 1025.3mb 57f 59f
5:12 7 9 mph 1025.4mb 57f 59f
5:06 9 13 mph 1025.4mb 57f 59f
5:00 10 13 mph 1025.5mb 57f 59f
4:36 7 9 mph 1025.4mb 57f 58f
4:30 2 6 mph 1025.5mb 57f 59f
4:24 2 5 mph 1025.5mb 57f 58f
4:18 1 8 mph 1025.5mb 57f 59f
4:12 3 8 mph 1025.5mb 57f 59f
4:06 3 6 mph 1025.5mb 57f 59f
4:00 3 9 mph 1025.5mb 57f 59f
3:36 3 8 mph 1025.5mb 57f 58f
3:30 1 2 mph 1025.5mb 57f 59f
3:24 2 6 mph 1025.6mb 57f 58f
3:18 3 6 mph 1025.6mb 57f 58f
3:12 2 5 mph 1025.6mb 57f 58f
3:06 2 5 mph 1025.7mb 57f 58f
3:00 1 3 mph 1025.7mb 57f 58f
2:36 2
mph
1025.8mb 57f 57f
2:30  -  2 mph 1025.8mb 57f 57f
2:24 1 2 mph 1025.8mb 56f 57f
2:18 1 2 mph 1025.8mb 57f 58f
2:12 1 2 mph 1025.8mb 57f 58f
2:06  -  2 mph 1025.8mb 57f 58f
2:00  -  2 mph 1025.8mb 57f 58f
1:36 2
mph
1026mb 57f 57f
1:30 1 2 mph 1026mb 57f 57f
1:24 1 2 mph 1026mb 56f 58f
1:18 1 2 mph 1026mb 56f 57f
1:12 2
mph
1026mb 57f 57f
1:06 2 3 mph 1026.1mb 57f 57f
1:00 2 3 mph 1026.1mb 57f 57f
12:36 1 2 mph 1026.3mb 57f 58f
12:30 1 5 mph 1026.4mb 57f 58f
12:24 5 8 mph 1026.4mb 57f 57f
12:18 7 10 mph 1026.5mb 57f 58f
12:12 8 10 mph 1026.6mb 57f 58f
12:06 9 14 mph 1026.6mb 57f 59f
12:00 10 14 mph 1026.7mb 57f 60f
vie 07/22 11:36 6 7 mph 1026.4mb 57f 60f
11:30 7 8 mph 1026.4mb 57f 60f
11:24 7 8 mph 1026.5mb 57f 60f
11:18 7 9 mph 1026.4mb 57f 60f
11:12 7 9 mph 1026.5mb 57f 60f
11:06 6
mph
1026.5mb 57f 60f
11:00 5 6 mph 1026.4mb 57f 60f
10:36 3 6 mph 1026.4mb 58f 60f
10:30 3 5 mph 1026.4mb 58f 60f
10:24 3 6 mph 1026.4mb 58f 60f
10:18 5 6 mph 1026.5mb 58f 60f
10:12 5 7 mph 1026.5mb 58f 60f
10:06 5 6 mph 1026.5mb 58f 60f
10:00 6 7 mph 1026.4mb 58f 60f
9:36 3 5 mph 1026.2mb 60f 60f
9:30 3 5 mph 1026.2mb 60f 60f
9:24 3 5 mph 1026.2mb 61f 60f
9:18 5 6 mph 1026.2mb 61f 60f
9:12 3 5 mph 1026.2mb 61f 60f
9:06 3 5 mph 1026.1mb 60f 60f
9:00 3 5 mph 1026mb 60f 60f
8:36 2 5 mph 1026.1mb 60f 60f
8:30 2 5 mph 1026.1mb 60f 60f
8:24 3 5 mph 1026.1mb 60f 61f
8:18 2 3 mph 1026.1mb 60f 61f
8:12 2
mph
1026.2mb 60f 60f
8:06 1 2 mph 1026.2mb 60f 60f
8:00 2 3 mph 1026.3mb 59f 60f
7:36 3
mph
1026.2mb 58f 60f
7:30 3 5 mph 1026.2mb 58f 60f
7:24 3 6 mph 1026.2mb 58f 60f
7:18 5 6 mph 1026.2mb 57f 60f
7:12 3 7 mph 1026.2mb 57f 59f
7:06 7 10 mph 1026.2mb 57f 60f
7:00 5 8 mph 1026.2mb 57f 60f
6:36 3 6 mph 1026.3mb 57f 61f
6:30 5 6 mph 1026.3mb 57f 60f
6:24 6 10 mph 1026.3mb 57f 60f
6:18 8 9 mph 1026.3mb 57f 61f
6:12 6 8 mph 1026.3mb 57f 60f
6:06 8 9 mph 1026.3mb 56f 60f
6:00 7 10 mph 1026.3mb 57f 60f
5:36 7 9 mph 1026.3mb 57f 60f
5:30 8 9 mph 1026.3mb 56f 60f
5:24 8 9 mph 1026.2mb 56f 62f
5:18 6 7 mph 1026.2mb 56f 62f
5:12 6 7 mph 1026.3mb 56f 61f
5:06 6 7 mph 1026.2mb 56f 61f
5:00 6 7 mph 1026.2mb 56f 61f
4:36 5 7 mph 1026.3mb 56f 61f
4:30 5 7 mph 1026.3mb 56f 61f
4:24 6 7 mph 1026.4mb 56f 61f
4:18 6 8 mph 1026.5mb 56f 61f
4:12 6 7 mph 1026.6mb 56f 61f
4:06 6 7 mph 1026.6mb 56f 61f
4:00 6 7 mph 1026.5mb 56f 61f
3:54 6 7 mph 1026.5mb 56f 61f
3:48 5 7 mph 1026.5mb 56f 61f
3:36 6 7 mph 1026.5mb 56f 61f
3:30 6 7 mph 1026.4mb 56f 61f
3:24 6 7 mph 1026.4mb 56f 61f
3:18 6 7 mph 1026.4mb 56f 61f
3:12 6 7 mph 1026.4mb 56f 61f
3:06 5 6 mph 1026.4mb 56f 60f
3:00 5 7 mph 1026.4mb 56f 61f
2:54 5 6 mph 1026.4mb 56f 61f
2:48 3 6 mph 1026.5mb 56f 60f
2:36 5 7 mph 1026.5mb 56f 60f
2:30 6 7 mph 1026.4mb 56f 60f
2:24 5 7 mph 1026.4mb 56f 60f
2:18 6 7 mph 1026.4mb 56f 60f
2:12 6 7 mph 1026.4mb 57f 60f
2:06 6 8 mph 1026.3mb 56f 60f
2:00 6 8 mph 1026.2mb 57f 60f
1:54 6 8 mph 1026.2mb 56f 60f
1:48 7 8 mph 1026.1mb 56f 60f
1:36 6 9 mph 1026.1mb 57f 60f
1:30 6 9 mph 1026.1mb 56f 60f
1:24 3 7 mph 1026mb 56f 60f
1:18 5 7 mph 1026mb 57f 60f
1:12 5 7 mph 1026mb 56f 60f
1:06 6 7 mph 1025.9mb 56f 60f
1:00 5 7 mph 1025.9mb 56f 60f
12:54 6 7 mph 1025.8mb 57f 60f
12:48 6 8 mph 1025.8mb 57f 60f
12:36 7 9 mph 1025.8mb 57f 60f
12:30 6 9 mph 1025.8mb 57f 60f
12:24 7 9 mph 1025.7mb 57f 60f
12:18 8 9 mph 1025.6mb 56f 60f
12:12 7 8 mph 1025.6mb 57f 60f
12:06 6 9 mph 1025.6mb 57f 59f
12:00 7 9 mph 1025.6mb 57f 59f
11:54 7 9 mph 1025.6mb 57f 59f
11:48 7 9 mph 1025.6mb 57f 59f
11:36 7 9 mph 1025.5mb 57f 59f
11:30 7 8 mph 1025.4mb 58f 59f
11:24 6 8 mph 1025.3mb 58f 58f
11:18 6 8 mph 1025.3mb 58f 58f
11:12 6 8 mph 1025.2mb 58f 58f
11:06 5 6 mph 1025.1mb 59f 58f
11:00 6 8 mph 1025.1mb 59f 58f
10:54 6 7 mph 1025mb 59f 59f
10:48 6 7 mph 1024.9mb 59f 58f
10:36 7 9 mph 1024.8mb 60f 59f
10:30 8 10 mph 1024.7mb 61f 59f
10:24 6 7 mph 1024.7mb 61f 59f
10:18 6 7 mph 1024.7mb 62f 59f
10:12 6 8 mph 1024.7mb 62f 59f
10:06 6 7 mph 1024.7mb 62f 58f
10:00 7 8 mph 1024.6mb 62f 58f
9:54 6 8 mph 1024.7mb 63f 58f
9:48 6 7 mph 1024.6mb 63f 58f
9:36 5 6 mph 1024.6mb 63f 57f
9:30 6 7 mph 1024.6mb 63f 58f
9:24 5 7 mph 1024.6mb 63f 58f
9:18 6 8 mph 1024.6mb 63f 58f
9:12 6 8 mph 1024.5mb 63f 58f
9:06 6 9 mph 1024.5mb 63f 58f
9:00 6 10 mph 1024.4mb 63f 58f
8:54 7 10 mph 1024.4mb 63f 58f
8:48 8 10 mph 1024.4mb 63f 58f
8:36 9 11 mph 1024.2mb 63f 59f
8:30 9 13 mph 1024.2mb 63f 59f
8:24 8 11 mph 1024.1mb 63f 58f
8:18 9 13 mph 1024.1mb 63f 59f
8:12 9 13 mph 1024.1mb 63f 59f
8:06 10 14 mph 1024.1mb 63f 59f
8:00 9 13 mph 1024mb 63f 60f
7:54 6
mph
1023.9mb 63f 60f
7:48 5 6 mph 1023.8mb 63f 60f
7:36 2 7 mph 1023.7mb 63f 60f
7:30 6 7 mph 1023.6mb 64f 60f
7:24 3 5 mph 1023.5mb 63f 60f
7:18 1 2 mph 1023.5mb 63f 60f
7:12 1 2 mph 1023.4mb 63f 60f
7:06  -  1 mph 1023.3mb 63f 59f
7:00  -  2 mph 1023.3mb 63f 60f
6:54 2 3 mph 1023.2mb 63f 60f
6:48 2 3 mph 1023.2mb 62f 60f
6:36 2 5 mph 1023.1mb 60f 59f
6:30 3 5 mph 1023mb 60f 59f
6:24 2
mph
1022.9mb 59f 59f
6:18  -  2 mph 1023mb 59f 59f
6:12 2
mph
1022.9mb 59f 59f
6:06 1 2 mph 1023mb 59f 59f
6:00 2
mph
1023mb 59f 59f
5:54 1 2 mph 1022.9mb 59f 59f
5:48  -  1 mph 1022.8mb 58f 60f
5:36 1 2 mph 1022.7mb 58f 60f
5:30 1 2 mph 1022.6mb 58f 60f
5:24  -  2 mph 1022.5mb 58f 60f
5:18 1 2 mph 1022.5mb 58f 60f
5:12  -  1 mph 1022.5mb 58f 60f
5:06  -  1 mph 1022.4mb 58f 60f
5:00  -  1 mph 1022.3mb 58f 60f
4:54 1 3 mph 1022.3mb 58f 60f
4:48  -  1 mph 1022.3mb 58f 59f
4:36  -  1 mph 1022.2mb 58f 60f
4:30  -  1 mph 1022.2mb 58f 60f
4:24  -  1 mph 1022.2mb 58f 60f
4:18  -  1 mph 1022.2mb 58f 60f
4:12  -  1 mph 1022.2mb 58f 60f
4:06  -  1 mph 1022.2mb 58f 60f
4:00 1
mph
1022.2mb 58f 60f
3:54  -  1 mph 1022.2mb 58f 60f
3:48  -  1 mph 1022.2mb 58f 60f
3:36  -  1 mph 1022.1mb 58f 60f
3:30  -  1 mph 1022.1mb 58f 60f
3:24  -  1 mph 1022.2mb 58f 60f
3:18  -  1 mph 1022.1mb 58f 60f
3:12  -  2 mph 1022.1mb 58f 60f
3:06 1
mph
1022.1mb 58f 60f
3:00  -  2 mph 1022mb 58f 60f
2:54  -  3 mph 1022.1mb 58f 60f
2:48 2
mph
1022mb 58f 60f
2:36 2 3 mph 1021.9mb 58f 60f
2:30 2 3 mph 1021.8mb 58f 60f
2:24 3 6 mph 1021.8mb 58f 60f
2:18 3 5 mph 1021.8mb 58f 60f
2:12 3 5 mph 1021.8mb 58f 60f
2:06 3 5 mph 1021.8mb 58f 60f
2:00 3 5 mph 1021.8mb 58f 60f
1:54 3 5 mph 1021.7mb 58f 60f
1:48 2 5 mph 1021.7mb 58f 60f
1:36 2
mph
1021.6mb 58f 60f
1:30 1 2 mph 1021.7mb 58f 60f
1:24 2 3 mph 1021.7mb 59f 60f
1:18 2
mph
1021.7mb 59f 60f
1:12 1 5 mph 1021.8mb 59f 61f
1:06 5 6 mph 1021.7mb 59f 60f
1:00 6
mph
1021.6mb 59f 60f
12:54 3 5 mph 1021.7mb 59f 61f
12:48 2 3 mph 1021.8mb 59f 60f
12:36 2 3 mph 1021.8mb 59f 60f
12:30 2 5 mph 1021.7mb 59f 60f
12:24 2 5 mph 1021.7mb 59f 60f
12:18 3 6 mph 1021.7mb 59f 60f
12:12 3 5 mph 1021.6mb 59f 60f
12:06 3 5 mph 1021.7mb 59f 60f
12:00 3 5 mph 1021.7mb 59f 61f
jue 07/21 11:54 2
mph
1021.6mb 59f 60f
11:48 2
mph
1021.6mb 59f 61f
11:36 1 3 mph 1021.5mb 59f 61f
11:30 3
mph
1021.4mb 59f 60f
11:24 3 6 mph 1021.4mb 59f 60f
11:18 3 6 mph 1021.2mb 59f 60f
11:12 3 7 mph 1021.2mb 59f 60f
11:06 6 8 mph 1021mb 59f 61f
11:00 5 7 mph 1020.9mb 60f 61f
10:54 7 9 mph 1020.8mb 60f 61f
10:48 8 9 mph 1020.7mb 60f 61f
10:36 7 8 mph 1021mb 60f 61f
10:30 5 8 mph 1021.1mb 60f 61f
10:24 6 8 mph 1021.1mb 60f 61f
10:18 5 7 mph 1021.2mb 60f 61f
10:12 5 7 mph 1021.3mb 60f 61f
10:06 6 8 mph 1021.3mb 60f 61f
10:00 6 8 mph 1021.3mb 60f 61f
9:54 3 6 mph 1021.3mb 60f 60f
9:48 5 6 mph 1021.2mb 61f 61f
9:36 3
mph
1020.8mb 61f 61f
9:30 3 5 mph 1020.7mb 61f 60f
9:24 3 5 mph 1020.6mb 61f 60f
9:18 3 5 mph 1020.5mb 61f 61f
9:12 2 3 mph 1020.3mb 61f 60f
9:06 2 3 mph 1020.1mb 62f 60f
9:00 1 2 mph 1020mb 62f 60f
8:54  -  2 mph 1020mb 62f 60f
8:48 2
mph
1019.9mb 62f 60f
8:36 2 3 mph 1019.7mb 62f 60f
8:30 3 5 mph 1019.6mb 62f 60f
8:24 3 6 mph 1019.6mb 62f 61f
8:18 5 6 mph 1019.5mb 62f 60f
8:12 6 7 mph 1019.6mb 62f 61f
8:06 5 6 mph 1019.6mb 62f 61f
8:00 6 8 mph 1019.5mb 63f 61f
7:54 7 9 mph 1019.5mb 63f 60f
7:48 7 9 mph 1019.5mb 63f 60f
7:36 7 9 mph - 62f 59f
7:30 9 11 mph - 62f 59f
7:24 11 13 mph - 62f 59f
7:18 8 10 mph - 62f 59f
7:12 7 10 mph - 61f 58f
7:06 9 10 mph - 61f 58f
7:00 8 10 mph - 61f 58f
6:54 8 11 mph - 61f 58f
6:48 9 11 mph - 60f 58f
6:36 9 11 mph 1019.2mb 60f 58f
6:30 9 15 mph 1019.1mb 60f 58f
6:24 9 13 mph 1019mb 60f 58f
6:18 10 13 mph 1019.1mb 60f 58f
6:12 8 13 mph 1019mb 60f 58f
6:06 11 14 mph 1019.1mb 60f 58f
6:00 10 13 mph 1019.1mb 60f 58f
5:54 11 13 mph 1019.1mb 60f 58f
5:48 9 11 mph 1019mb 60f 58f
5:36 10 14 mph 1019.1mb 60f 58f
5:30 13 15 mph 1019mb 59f 58f
5:24 11 14 mph 1019.1mb 60f 58f
5:18 10 15 mph 1019.1mb 59f 58f
5:12 11 16 mph 1019mb 59f 58f
5:06 14 16 mph 1019mb 59f 58f
5:00 13 16 mph 1018.8mb 59f 59f
4:54 13 17 mph 1018.8mb 59f 59f
4:48 13 17 mph 1018.8mb 59f 58f
4:36 14 16 mph 1018.9mb 59f 58f
4:30 13 15 mph 1019.1mb 59f 58f
4:24 13 16 mph 1019.1mb 59f 58f
4:18 13 15 mph 1019.1mb 59f 58f
4:12 14 17 mph 1019.1mb 59f 58f
4:06 13 17 mph 1019mb 59f 58f
4:00 13 16 mph 1018.9mb 59f 58f
3:36 14 15 mph 1018.9mb 59f 58f
3:30 14 17 mph 1018.9mb 59f 58f
3:24 13 16 mph 1019mb 59f 58f
3:18 11 15 mph 1019mb 59f 58f
3:12 14 16 mph 1019mb 59f 58f
3:06 13 16 mph 1019mb 59f 58f
3:00 13 17 mph 1019.1mb 59f 58f
2:54 13 16 mph 1019.1mb 59f 58f
2:48 14 17 mph 1019.1mb 59f 58f
2:36 13 17 mph 1019mb 60f 58f
2:30 14 17 mph 1019.1mb 60f 58f
2:24 14 16 mph 1019.1mb 60f 58f
2:18 13 16 mph 1019.1mb 60f 58f
2:12 15 16 mph 1019mb 60f 58f
2:06 14 16 mph 1019.2mb 59f 58f
2:00 15 17 mph 1019.2mb 59f 58f
1:54 13 16 mph 1019.2mb 59f 58f
1:48 14 17 mph 1019.2mb 59f 58f
1:36 16 17 mph 1019.1mb 59f 58f
1:30 14 17 mph 1019.1mb 59f 58f
1:24 15 17 mph 1019.1mb 59f 58f
1:18 14 17 mph 1019mb 59f 58f
1:12 14 16 mph 1019mb 59f 58f
1:06 14 16 mph 1019mb 59f 58f
1:00 13 16 mph 1019.1mb 59f 58f
12:54 13 17 mph 1019.1mb 59f 58f
12:48 15 17 mph 1019mb 59f 58f
12:36 14 16 mph 1019.1mb 59f 58f
12:30 14 16 mph 1019mb 59f 58f
12:24 14 18 mph 1018.9mb 59f 58f
12:18 14 20 mph 1018.9mb 59f 58f
12:12 14 18 mph 1018.8mb 59f 58f
12:06 14 17 mph 1018.8mb 59f 57f
12:00 16 18 mph 1018.8mb 59f 57f
11:54 15 17 mph 1018.8mb 59f 57f
11:48 16 18 mph 1018.8mb 59f 57f
11:36 14 17 mph 1018.9mb 59f 57f
11:30 15 17 mph 1018.9mb 59f 57f
11:24 14 18 mph 1018.9mb 60f 57f
11:18 15 17 mph 1018.9mb 60f 57f
11:12 15 16 mph 1018.9mb 60f 57f
11:06 14 17 mph 1018.9mb 60f 57f
11:00 14 17 mph 1018.9mb 60f 57f
10:54 14 16 mph 1018.9mb 60f 57f
10:48 13 16 mph 1018.9mb 60f 57f
10:36 13 16 mph 1018.9mb 60f 57f
10:30 13 17 mph 1018.8mb 60f 57f
10:24 14 16 mph 1018.7mb 60f 57f
10:18 14 16 mph 1018.7mb 61f 57f
10:12 14 17 mph 1018.7mb 61f 57f
10:06 13 15 mph 1018.7mb 61f 57f
10:00 13 14 mph 1018.7mb 62f 57f
9:54 13 16 mph 1018.7mb 62f 57f
9:48 14 16 mph 1018.8mb 63f 57f
9:36 13 15 mph 1018.8mb 63f 57f
9:30 13 14 mph 1018.8mb 63f 57f
9:24 11 14 mph 1018.9mb 63f 57f
9:18 11 15 mph 1018.9mb 63f 57f
9:12 11 14 mph 1018.9mb 63f 57f
9:06 10 13 mph 1019mb 63f 57f
9:00 9 11 mph 1019.1mb 63f 57f
8:54 10 13 mph 1019.1mb 63f 57f
8:48 11 14 mph 1019.1mb 64f 58f
8:36 9 11 mph 1019mb 64f 58f
8:30 6 8 mph 1019.1mb 64f 58f
8:24 3 6 mph 1019.1mb 64f 57f
8:18 3 8 mph 1019.1mb 64f 57f
8:12 6 8 mph 1019.1mb 64f 57f
8:06 7 9 mph 1019.1mb 64f 57f
8:00 8 9 mph 1019.1mb 64f 57f
7:54 6 8 mph 1019.1mb 64f 56f
7:48 7 8 mph 1019.1mb 64f 57f
7:36 7 9 mph 1019.1mb 64f 57f
7:30 8 9 mph 1019.1mb 64f 57f
7:24 8 9 mph 1019.1mb 64f 57f
7:18 7 8 mph 1019mb 64f 57f
7:12 6 8 mph 1019mb 64f 57f
7:06 7 9 mph 1019mb 64f 57f
7:00 7 9 mph 1019mb 64f 57f
6:54 8 10 mph 1018.9mb 64f 57f
6:48 8 9 mph 1018.9mb 64f 57f
6:36 6 9 mph 1018.9mb 63f 57f
6:30 7
mph
1018.8mb 63f 57f
6:24 6 8 mph 1018.9mb 63f 57f
6:18 6 7 mph 1018.8mb 63f 57f
6:12 3 7 mph 1018.8mb 62f 57f
6:06 3 6 mph 1018.7mb 62f 57f
6:00 5 6 mph 1018.7mb 61f 57f
5:54 3 7 mph 1018.7mb 60f 57f
5:48 6 7 mph 1018.7mb 60f 57f
5:36 2 3 mph 1018.7mb 60f 58f
5:30 2 6 mph 1018.7mb 60f 58f
5:24 3 6 mph 1018.6mb 60f 58f
5:18 3 7 mph 1018.6mb 60f 58f
5:12 6 8 mph 1018.5mb 60f 58f
5:06 3 6 mph 1018.6mb 60f 58f
5:00 3 8 mph 1018.6mb 60f 58f
4:54 6 7 mph 1018.7mb 60f 58f
4:48 3 6 mph 1018.7mb 60f 58f
4:36 5 6 mph 1018.8mb 60f 57f
4:30 6 8 mph 1018.8mb 60f 57f
4:24 5 6 mph 1018.8mb 60f 57f
4:18 3 5 mph 1018.9mb 60f 57f
4:12 3 6 mph 1018.9mb 60f 58f
4:06 5 7 mph 1018.9mb 60f 57f
4:00 3 5 mph 1018.9mb 60f 57f
3:54 2 6 mph 1018.9mb 60f 57f
3:48 3 5 mph 1018.9mb 59f 57f
3:36 3 7 mph 1018.9mb 59f 57f
3:30 3 5 mph 1018.9mb 60f 57f
3:24 3 6 mph 1019mb 59f 57f
3:18 2 5 mph 1019mb 59f 57f
3:12 2 3 mph 1019mb 60f 57f
3:06 3 6 mph 1019mb 59f 57f
3:00 3 6 mph 1019mb 60f 57f
2:54 1 2 mph 1019.1mb 60f 57f
2:48 2 3 mph 1019.1mb 60f 56f
2:36 2 3 mph 1019.2mb 60f 57f
2:30 2 3 mph 1019.1mb 60f 57f
2:24  -  2 mph 1019.1mb 60f 56f
2:18 1 2 mph 1019.1mb 60f 56f
2:12 2
mph
1019.1mb 60f 56f
2:06 2 3 mph 1019.1mb 60f 56f
2:00 2
mph
1019.1mb 60f 57f
1:54 2 3 mph 1019.1mb 60f 56f
1:48 2 3 mph 1019.1mb 60f 56f
1:36 1 5 mph 1019.1mb 60f 57f
1:30 1 5 mph 1019mb 60f 57f
1:24 2 5 mph 1019mb 60f 57f
1:18 3 5 mph 1019.1mb 60f 57f
1:12 1 3 mph 1019.1mb 60f 57f
1:06 1 3 mph 1019.1mb 60f 57f
1:00 1 2 mph 1019.1mb 60f 57f
12:54 2 3 mph 1019.1mb 60f 57f
12:48 1 2 mph 1019.1mb 60f 57f
12:36 2 3 mph 1019.2mb 60f 57f
12:30 2
mph
1019.2mb 60f 57f
12:24 2 3 mph 1019.2mb 60f 57f
12:18 2 3 mph 1019.2mb 60f 57f
12:12 2
mph
1019.3mb 60f 57f
12:06 1 2 mph 1019.3mb 60f 57f
12:00 2
mph
1019.2mb 60f 57f
mié 07/20 11:54 2
mph
1019.2mb 60f 58f
11:48 2
mph
1019.1mb 60f 58f
11:36 1 2 mph 1019.3mb 59f 58f
11:30 1 2 mph 1019.3mb 59f 58f
11:24 2 3 mph 1019.3mb 59f 58f
11:18 1 2 mph 1019.3mb 59f 58f
11:12 1 2 mph 1019.3mb 59f 58f
11:06  -  2 mph 1019.3mb 59f 58f
11:00 2 3 mph 1019.4mb 59f 58f
10:54 2 6 mph 1019.4mb 59f 58f
10:48 5 6 mph 1019.5mb 59f 58f
10:36 5 7 mph 1019.5mb 59f 59f
10:30 3 5 mph 1019.6mb 59f 59f
10:24 2 3 mph 1019.6mb 59f 59f
10:18 2 3 mph 1019.6mb 59f 59f
10:12 2 3 mph 1019.6mb 59f 60f
10:06 1 3 mph 1019.6mb 60f 60f
10:00 1 5 mph 1019.7mb 59f 60f
9:54 2 3 mph 1019.6mb 59f 60f
9:48 2 6 mph 1019.6mb 59f 61f
9:36 6 8 mph 1019.6mb 59f 61f
9:30 7 9 mph 1019.6mb 60f 61f
9:24 8 10 mph 1019.5mb 60f 61f
9:18 8 10 mph 1019.5mb 60f 60f
9:12 8 9 mph 1019.6mb 59f 61f
9:06 8 9 mph 1019.5mb 60f 61f
9:00 8 9 mph 1019.5mb 60f 61f
8:54 7 9 mph 1019.6mb 60f 61f
8:48 7 8 mph 1019.6mb 60f 61f
8:36 7 8 mph 1019.6mb 60f 61f
8:30 6 8 mph 1019.6mb 60f 61f
8:24 6 7 mph 1019.6mb 60f 61f
8:18 6 7 mph 1019.7mb 60f 61f
8:12 6 7 mph 1019.7mb 60f 61f
8:06 6 7 mph 1019.7mb 60f 61f
8:00 6 7 mph 1019.8mb 60f 62f
7:54 7 8 mph 1019.8mb 60f 62f
7:48 6 7 mph 1019.8mb 60f 62f
7:36 7 8 mph 1020mb 60f 62f
7:30 7 9 mph 1020mb 60f 62f
7:24 7 8 mph 1020.1mb 60f 62f
7:18 7 8 mph 1020.2mb 60f 62f
7:12 7 8 mph 1020.2mb 60f 62f
7:06 7 8 mph 1020.2mb 60f 62f
7:00 6 7 mph 1020.2mb 60f 62f
6:54 6 7 mph 1020.2mb 59f 62f
6:48 5 6 mph 1020.2mb 59f 62f
6:36 6 7 mph 1020.3mb 59f 62f
6:30 6 7 mph 1020.5mb 59f 62f
6:24 6
mph
1020.4mb 59f 62f
6:18 6
mph
1020.5mb 59f 62f
6:12 6
mph
1020.5mb 59f 62f
6:06 5 6 mph 1020.6mb 59f 62f
6:00 5
mph
1020.6mb 59f 62f
5:54 3 6 mph 1020.6mb 58f 62f
5:48 5 6 mph 1020.6mb 59f 62f
5:36 6 7 mph 1020.5mb 59f 62f
5:30 6 7 mph 1020.6mb 58f 62f
5:24 6 7 mph 1020.6mb 59f 62f
5:18 5 6 mph 1020.6mb 58f 62f
5:12 5 6 mph 1020.6mb 59f 62f
5:06 5 6 mph 1020.7mb 58f 62f
5:00 5 7 mph 1020.8mb 58f 62f
4:54 6
mph
1020.8mb 58f 62f
4:48 5 6 mph 1020.9mb 58f 62f
4:36 5 6 mph 1020.9mb 58f 62f
4:30 5 6 mph 1021mb 58f 62f
4:24 5 6 mph 1021mb 58f 62f
4:18 5 6 mph 1021mb 58f 62f
4:12 3 6 mph 1021.1mb 58f 62f
4:06 5 6 mph 1021.1mb 58f 62f
4:00 6 7 mph 1021.1mb 58f 62f
3:54 5 7 mph 1021.1mb 58f 62f
3:48 6 8 mph 1021.2mb 58f 62f
3:36 7 8 mph 1021.2mb 58f 62f
3:30 7 8 mph 1021.2mb 58f 62f
3:24 6 8 mph 1021.1mb 58f 62f
3:18 7 8 mph 1021.1mb 58f 62f
3:12 7 8 mph 1021mb 58f 62f
3:06 6 8 mph 1021.1mb 58f 62f
3:00 7 8 mph 1021.1mb 58f 62f
2:54 7 9 mph 1021.1mb 58f 62f
2:48 7 10 mph 1021.1mb 58f 61f
2:36 8 10 mph 1021.2mb 58f 61f
2:30 8 9 mph 1021.2mb 58f 62f
2:24 8 10 mph 1021.2mb 58f 62f
2:18 8 9 mph 1021.3mb 58f 62f
2:12 6 9 mph 1021.3mb 58f 62f
2:06 6 9 mph 1021.4mb 58f 61f
2:00 7 10 mph 1021.4mb 58f 61f
1:54 7 10 mph 1021.4mb 58f 62f
1:48 8 9 mph 1021.4mb 58f 62f
1:36 7 8 mph 1021.4mb 58f 61f
1:30 7 9 mph 1021.4mb 58f 61f
1:24 8 9 mph 1021.5mb 58f 61f
1:18 7 8 mph 1021.5mb 58f 61f
1:12 7 9 mph 1021.5mb 58f 61f
1:06 6 9 mph 1021.5mb 58f 61f
1:00 9 10 mph 1021.5mb 58f 62f
12:54 8 11 mph 1021.5mb 58f 62f
12:48 9 11 mph 1021.5mb 58f 62f
12:36 9 13 mph 1021.4mb 58f 62f
12:30 9 11 mph 1021.5mb 58f 62f
12:24 8 10 mph 1021.4mb 58f 62f
12:18 8 10 mph 1021.4mb 58f 62f
12:12 8 9 mph 1021.4mb 58f 62f
12:06 8 10 mph 1021.4mb 58f 62f
12:00 8 9 mph 1021.5mb 58f 62f
11:54 7 9 mph 1021.5mb 58f 62f
11:48 8 10 mph 1021.5mb 58f 62f
11:36 8 11 mph 1021.5mb 58f 62f
11:30 7 11 mph 1021.5mb 58f 62f
11:24 8 10 mph 1021.4mb 58f 62f
11:18 6 10 mph 1021.4mb 58f 62f
11:12 8 10 mph 1021.4mb 58f 62f
11:06 9 11 mph 1021.4mb 58f 62f
11:00 8 11 mph 1021.4mb 58f 62f
10:54 8 10 mph 1021.3mb 58f 62f
10:48 8 10 mph 1021.3mb 58f 62f
10:36 8 10 mph 1021.3mb 58f 62f
10:30 8 10 mph 1021.3mb 58f 62f
10:24 6 9 mph 1021.2mb 58f 62f
10:18 6 7 mph 1021.1mb 58f 62f
10:12 7
mph
1021.1mb 58f 62f
10:06  -  2 mph 1021mb 59f 61f
10:00 2 5 mph 1021mb 59f 61f
9:54 2 5 mph 1021mb 59f 61f
9:48 5 6 mph 1021mb 59f 60f
9:36 3 5 mph 1021mb 60f 61f
9:30 2
mph
1020.9mb 60f 61f
9:24 2
mph
1020.9mb 60f 60f
9:18 2 3 mph 1020.9mb 60f 61f
9:12 2 3 mph 1020.9mb 61f 62f
9:06  -  3 mph 1020.8mb 62f 61f
9:00 2 3 mph 1020.8mb 62f 61f
8:54 3 5 mph 1020.7mb 62f 61f
8:48 2 5 mph 1020.7mb 62f 60f
8:36 2 6 mph 1020.7mb 62f 60f
8:30 2 6 mph 1020.7mb 62f 60f
8:24 3 6 mph 1020.7mb 62f 59f
8:18 2 5 mph 1020.7mb 62f 59f
8:12 2 5 mph 1020.7mb 63f 59f
8:06 3 6 mph 1020.7mb 63f 59f
8:00 5 6 mph 1020.7mb 63f 59f
7:54 2 5 mph 1020.7mb 63f 58f
7:48 2 5 mph 1020.7mb 63f 58f
7:36 5 6 mph 1020.7mb 63f 57f
7:30 2 5 mph 1020.7mb 63f 56f
7:24 3
mph
1020.7mb 63f 56f
7:18 2 3 mph 1020.7mb 63f 56f
7:12 3 5 mph 1020.7mb 64f 56f
7:06 2 3 mph 1020.7mb 64f 56f
7:00  -  3 mph 1020.7mb 64f 56f
6:36 3 5 mph 1020.5mb 64f 55f
6:30 2 5 mph 1020.4mb 64f 55f
6:24 2 3 mph 1020.4mb 64f 55f
6:18 2 3 mph 1020.4mb 63f 55f
6:12 1 3 mph 1020.4mb 63f 55f
6:06 2
mph
1020.4mb 63f 55f
6:00  -  2 mph 1020.4mb 63f 55f
5:54  -  1 mph 1020.3mb 63f 55f
5:48  -  2 mph 1020.3mb 63f 55f
5:36 2 5 mph 1020.3mb 62f 55f
5:30 3
mph
1020.2mb 61f 55f
5:24 2 5 mph 1020.2mb 60f 55f
5:18 5 6 mph 1020.1mb 60f 55f
5:12 3 6 mph 1020.1mb 60f 55f
5:06 5 6 mph 1020.1mb 59f 55f
5:00 6 7 mph 1020.1mb 59f 55f
4:54 6 7 mph 1020.1mb 59f 55f
4:48 5 6 mph 1020mb 59f 55f
4:36 5 7 mph 1020mb 59f 55f
4:30 5 6 mph 1020.1mb 59f 55f
4:24 5 6 mph 1020mb 59f 55f
4:18 3 6 mph 1020mb 59f 55f
4:12 3 6 mph 1020mb 59f 55f
4:06 5 7 mph 1020mb 59f 55f
4:00 5 6 mph 1020.1mb 59f 55f
3:54 6 8 mph 1020mb 59f 55f
3:48 6 7 mph 1020mb 59f 55f
3:36 7 8 mph 1020mb 59f 55f
3:30 6 7 mph 1020mb 59f 55f
3:24 6 8 mph 1020mb 59f 55f
3:18 6 8 mph 1020mb 59f 55f
3:12 6 7 mph 1020mb 59f 55f
3:06 6 7 mph 1020mb 59f 55f
3:00 6 7 mph 1020.1mb 59f 55f
2:54 5 6 mph 1020mb 59f 55f
2:48 6
mph
1020mb 59f 55f
2:36 5 7 mph 1020mb 59f 55f
2:30 5 7 mph 1020mb 59f 55f
2:24 6 7 mph 1020mb 59f 55f
2:18 5 7 mph 1020mb 59f 56f
2:12 5 6 mph 1019.9mb 59f 55f
2:06 3 5 mph 1019.9mb 59f 55f
2:00 3 5 mph 1019.9mb 59f 56f
1:54 5 6 mph 1019.9mb 59f 56f
1:48 5 6 mph 1020mb 59f 56f
1:36 3 5 mph 1019.9mb 59f 56f
1:30 5 6 mph 1020mb 59f 56f
1:24 5 6 mph 1020mb 59f 56f
1:18 3 5 mph 1020mb 59f 56f
1:12 3 5 mph 1020mb 59f 56f
1:06 3 5 mph 1020mb 59f 56f
1:00 3 5 mph 1020.1mb 59f 56f
12:54 3 5 mph 1020.1mb 59f 56f
12:48 3 5 mph 1020.1mb 59f 57f
12:36 2 3 mph 1020.2mb 59f 57f
12:30 2 3 mph 1020.1mb 59f 57f
12:24 3
mph
1020.2mb 59f 57f
12:18 3 5 mph 1020.3mb 59f 57f
12:12 3 5 mph 1020.3mb 59f 57f
12:06 3 5 mph 1020.3mb 59f 58f
12:00 2 3 mph 1020.3mb 59f 58f
mar 07/19 11:54 2 3 mph 1020.4mb 60f 58f
11:48 3
mph
1020.4mb 60f 58f
11:36 2 3 mph 1020.4mb 59f 58f
11:30 2
mph
1020.4mb 60f 59f
11:24 1 2 mph 1020.4mb 60f 59f